sensor_id;sensor_type;location;lat;lon;timestamp;temperature;humidity
70068;DHT22;57425;51.616;6.680;2023-05-20T00:01:12;17.30;53.00
70068;DHT22;57425;51.616;6.680;2023-05-20T00:03:38;17.30;53.20
70068;DHT22;57425;51.616;6.680;2023-05-20T00:06:03;17.30;53.70
70068;DHT22;57425;51.616;6.680;2023-05-20T00:08:29;17.30;53.20
70068;DHT22;57425;51.616;6.680;2023-05-20T00:10:55;17.30;53.20
70068;DHT22;57425;51.616;6.680;2023-05-20T00:13:20;17.30;53.30
70068;DHT22;57425;51.616;6.680;2023-05-20T00:15:46;17.20;53.20
70068;DHT22;57425;51.616;6.680;2023-05-20T00:18:12;17.20;53.40
70068;DHT22;57425;51.616;6.680;2023-05-20T00:20:37;17.20;53.20
70068;DHT22;57425;51.616;6.680;2023-05-20T00:23:03;17.20;53.40
70068;DHT22;57425;51.616;6.680;2023-05-20T00:25:30;17.20;53.40
70068;DHT22;57425;51.616;6.680;2023-05-20T00:27:57;17.20;53.40
70068;DHT22;57425;51.616;6.680;2023-05-20T00:30:23;17.10;53.50
70068;DHT22;57425;51.616;6.680;2023-05-20T00:32:49;17.10;53.70
70068;DHT22;57425;51.616;6.680;2023-05-20T00:35:14;17.10;53.70
70068;DHT22;57425;51.616;6.680;2023-05-20T00:37:40;17.10;53.80
70068;DHT22;57425;51.616;6.680;2023-05-20T00:40:06;17.10;53.80
70068;DHT22;57425;51.616;6.680;2023-05-20T00:42:33;17.10;53.90
70068;DHT22;57425;51.616;6.680;2023-05-20T00:44:59;17.00;53.70
70068;DHT22;57425;51.616;6.680;2023-05-20T00:47:32;17.00;53.90
70068;DHT22;57425;51.616;6.680;2023-05-20T00:49:59;17.10;53.90
70068;DHT22;57425;51.616;6.680;2023-05-20T00:52:26;17.00;54.10
70068;DHT22;57425;51.616;6.680;2023-05-20T00:54:53;17.00;54.10
70068;DHT22;57425;51.616;6.680;2023-05-20T00:57:19;17.00;54.10
70068;DHT22;57425;51.616;6.680;2023-05-20T00:59:45;17.00;54.10
70068;DHT22;57425;51.616;6.680;2023-05-20T01:02:11;16.90;54.10
70068;DHT22;57425;51.616;6.680;2023-05-20T01:04:37;16.90;54.70
70068;DHT22;57425;51.616;6.680;2023-05-20T01:07:04;16.90;54.80
70068;DHT22;57425;51.616;6.680;2023-05-20T01:09:31;16.90;54.80
70068;DHT22;57425;51.616;6.680;2023-05-20T01:14:49;16.90;54.40
70068;DHT22;57425;51.616;6.680;2023-05-20T01:17:18;16.90;54.60
70068;DHT22;57425;51.616;6.680;2023-05-20T01:19:46;16.80;54.60
70068;DHT22;57425;51.616;6.680;2023-05-20T01:22:14;16.80;54.80
70068;DHT22;57425;51.616;6.680;2023-05-20T01:24:44;16.80;54.80
70068;DHT22;57425;51.616;6.680;2023-05-20T01:27:11;16.80;54.70
70068;DHT22;57425;51.616;6.680;2023-05-20T01:29:39;16.80;54.80
70068;DHT22;57425;51.616;6.680;2023-05-20T01:32:08;16.80;54.90
70068;DHT22;57425;51.616;6.680;2023-05-20T01:34:36;16.70;54.90
70068;DHT22;57425;51.616;6.680;2023-05-20T01:37:04;16.70;55.10
70068;DHT22;57425;51.616;6.680;2023-05-20T01:39:33;16.70;55.30
70068;DHT22;57425;51.616;6.680;2023-05-20T01:42:01;16.70;56.00
70068;DHT22;57425;51.616;6.680;2023-05-20T01:44:28;16.70;55.60
70068;DHT22;57425;51.616;6.680;2023-05-20T01:46:54;16.60;55.50
70068;DHT22;57425;51.616;6.680;2023-05-20T01:49:19;16.60;55.50
70068;DHT22;57425;51.616;6.680;2023-05-20T01:51:45;16.60;55.50
70068;DHT22;57425;51.616;6.680;2023-05-20T01:54:11;16.60;55.60
70068;DHT22;57425;51.616;6.680;2023-05-20T01:56:36;16.60;55.70
70068;DHT22;57425;51.616;6.680;2023-05-20T01:59:02;16.60;55.70
70068;DHT22;57425;51.616;6.680;2023-05-20T02:01:27;16.60;56.30
70068;DHT22;57425;51.616;6.680;2023-05-20T02:03:53;16.60;55.80
70068;DHT22;57425;51.616;6.680;2023-05-20T02:06:19;16.50;55.80
70068;DHT22;57425;51.616;6.680;2023-05-20T02:08:44;16.50;55.90
70068;DHT22;57425;51.616;6.680;2023-05-20T02:11:10;16.50;56.00
70068;DHT22;57425;51.616;6.680;2023-05-20T02:13:35;16.50;56.00
70068;DHT22;57425;51.616;6.680;2023-05-20T02:16:01;16.50;56.10
70068;DHT22;57425;51.616;6.680;2023-05-20T02:20:53;16.60;86.50
70068;DHT22;57425;51.616;6.680;2023-05-20T02:23:18;16.70;84.60
70068;DHT22;57425;51.616;6.680;2023-05-20T02:25:44;16.60;83.50
70068;DHT22;57425;51.616;6.680;2023-05-20T02:28:10;16.40;83.80
70068;DHT22;57425;51.616;6.680;2023-05-20T02:30:37;16.60;83.90
70068;DHT22;57425;51.616;6.680;2023-05-20T02:33:02;16.40;56.40
70068;DHT22;57425;51.616;6.680;2023-05-20T02:35:28;16.40;56.50
70068;DHT22;57425;51.616;6.680;2023-05-20T02:37:55;16.30;56.50
70068;DHT22;57425;51.616;6.680;2023-05-20T02:40:21;16.40;56.60
70068;DHT22;57425;51.616;6.680;2023-05-20T02:42:47;16.30;56.60
70068;DHT22;57425;51.616;6.680;2023-05-20T02:45:13;16.30;56.80
70068;DHT22;57425;51.616;6.680;2023-05-20T02:47:38;16.30;56.90
70068;DHT22;57425;51.616;6.680;2023-05-20T02:50:04;16.30;56.90
70068;DHT22;57425;51.616;6.680;2023-05-20T02:52:32;16.30;57.00
70068;DHT22;57425;51.616;6.680;2023-05-20T02:54:58;16.20;57.00
70068;DHT22;57425;51.616;6.680;2023-05-20T02:57:24;16.20;57.10
70068;DHT22;57425;51.616;6.680;2023-05-20T02:59:51;16.20;57.10
70068;DHT22;57425;51.616;6.680;2023-05-20T03:02:17;16.20;57.20
70068;DHT22;57425;51.616;6.680;2023-05-20T03:04:43;16.20;57.30
70068;DHT22;57425;51.616;6.680;2023-05-20T03:07:10;16.20;57.30
70068;DHT22;57425;51.616;6.680;2023-05-20T03:09:36;16.20;57.40
70068;DHT22;57425;51.616;6.680;2023-05-20T03:12:02;16.20;57.40
70068;DHT22;57425;51.616;6.680;2023-05-20T03:14:28;16.10;57.40
70068;DHT22;57425;51.616;6.680;2023-05-20T03:16:53;16.10;57.40
70068;DHT22;57425;51.616;6.680;2023-05-20T03:19:22;16.10;57.50
70068;DHT22;57425;51.616;6.680;2023-05-20T03:21:48;16.10;57.60
70068;DHT22;57425;51.616;6.680;2023-05-20T03:24:15;16.10;57.60
70068;DHT22;57425;51.616;6.680;2023-05-20T03:26:40;16.10;57.60
70068;DHT22;57425;51.616;6.680;2023-05-20T03:29:10;16.00;57.60
70068;DHT22;57425;51.616;6.680;2023-05-20T03:31:36;16.00;57.60
70068;DHT22;57425;51.616;6.680;2023-05-20T03:34:02;16.10;57.80
70068;DHT22;57425;51.616;6.680;2023-05-20T03:36:28;16.10;57.80
70068;DHT22;57425;51.616;6.680;2023-05-20T03:38:53;16.00;57.80
70068;DHT22;57425;51.616;6.680;2023-05-20T03:41:19;16.00;57.80
70068;DHT22;57425;51.616;6.680;2023-05-20T03:43:45;16.00;57.80
70068;DHT22;57425;51.616;6.680;2023-05-20T03:46:10;15.90;58.40
70068;DHT22;57425;51.616;6.680;2023-05-20T03:48:36;15.90;57.90
70068;DHT22;57425;51.616;6.680;2023-05-20T03:51:02;16.00;58.00
70068;DHT22;57425;51.616;6.680;2023-05-20T03:53:28;15.90;58.00
70068;DHT22;57425;51.616;6.680;2023-05-20T03:55:54;15.90;58.00
70068;DHT22;57425;51.616;6.680;2023-05-20T03:58:21;15.90;58.00
70068;DHT22;57425;51.616;6.680;2023-05-20T04:00:47;15.90;58.10
70068;DHT22;57425;51.616;6.680;2023-05-20T04:03:13;15.90;58.20
70068;DHT22;57425;51.616;6.680;2023-05-20T04:05:39;15.90;58.20
70068;DHT22;57425;51.616;6.680;2023-05-20T04:08:04;15.80;58.80
70068;DHT22;57425;51.616;6.680;2023-05-20T04:10:32;15.80;58.30
70068;DHT22;57425;51.616;6.680;2023-05-20T04:12:57;15.80;58.40
70068;DHT22;57425;51.616;6.680;2023-05-20T04:15:23;15.80;58.90
70068;DHT22;57425;51.616;6.680;2023-05-20T04:17:49;15.80;58.40
70068;DHT22;57425;51.616;6.680;2023-05-20T04:20:17;15.80;58.50
70068;DHT22;57425;51.616;6.680;2023-05-20T04:22:46;15.70;58.50
70068;DHT22;57425;51.616;6.680;2023-05-20T04:25:12;15.70;58.60
70068;DHT22;57425;51.616;6.680;2023-05-20T04:27:38;15.70;58.60
70068;DHT22;57425;51.616;6.680;2023-05-20T04:30:05;15.70;58.70
70068;DHT22;57425;51.616;6.680;2023-05-20T04:32:32;15.70;58.80
70068;DHT22;57425;51.616;6.680;2023-05-20T04:35:00;15.70;58.80
70068;DHT22;57425;51.616;6.680;2023-05-20T04:37:27;15.70;58.90
70068;DHT22;57425;51.616;6.680;2023-05-20T04:39:53;15.70;58.90
70068;DHT22;57425;51.616;6.680;2023-05-20T04:42:19;15.60;59.10
70068;DHT22;57425;51.616;6.680;2023-05-20T04:44:47;15.60;58.90
70068;DHT22;57425;51.616;6.680;2023-05-20T04:47:13;15.60;59.00
70068;DHT22;57425;51.616;6.680;2023-05-20T04:49:39;15.60;59.60
70068;DHT22;57425;51.616;6.680;2023-05-20T04:52:05;15.50;59.10
70068;DHT22;57425;51.616;6.680;2023-05-20T04:54:33;15.60;59.20
70068;DHT22;57425;51.616;6.680;2023-05-20T04:56:59;15.60;59.40
70068;DHT22;57425;51.616;6.680;2023-05-20T04:59:25;15.50;59.40
70068;DHT22;57425;51.616;6.680;2023-05-20T05:01:51;15.50;59.40
70068;DHT22;57425;51.616;6.680;2023-05-20T05:04:17;15.50;59.50
70068;DHT22;57425;51.616;6.680;2023-05-20T05:06:42;15.50;59.60
70068;DHT22;57425;51.616;6.680;2023-05-20T05:09:08;15.50;59.70
70068;DHT22;57425;51.616;6.680;2023-05-20T05:11:34;15.40;59.70
70068;DHT22;57425;51.616;6.680;2023-05-20T05:14:00;15.40;59.70
70068;DHT22;57425;51.616;6.680;2023-05-20T05:16:25;15.50;59.80
70068;DHT22;57425;51.616;6.680;2023-05-20T05:18:51;15.40;59.90
70068;DHT22;57425;51.616;6.680;2023-05-20T05:21:17;15.40;60.00
70068;DHT22;57425;51.616;6.680;2023-05-20T05:23:42;15.40;60.10
70068;DHT22;57425;51.616;6.680;2023-05-20T05:26:08;15.40;60.10
70068;DHT22;57425;51.616;6.680;2023-05-20T05:28:34;15.40;60.20
70068;DHT22;57425;51.616;6.680;2023-05-20T05:30:59;15.40;60.20
70068;DHT22;57425;51.616;6.680;2023-05-20T05:33:27;15.40;60.20
70068;DHT22;57425;51.616;6.680;2023-05-20T05:35:54;15.40;60.30
70068;DHT22;57425;51.616;6.680;2023-05-20T05:38:23;15.40;60.40
70068;DHT22;57425;51.616;6.680;2023-05-20T05:40:49;15.30;60.50
70068;DHT22;57425;51.616;6.680;2023-05-20T05:43:14;15.30;60.60
70068;DHT22;57425;51.616;6.680;2023-05-20T05:45:40;15.40;60.80
70068;DHT22;57425;51.616;6.680;2023-05-20T05:48:07;15.40;60.80
70068;DHT22;57425;51.616;6.680;2023-05-20T05:50:33;15.60;74.60
70068;DHT22;57425;51.616;6.680;2023-05-20T05:52:58;15.60;73.70
70068;DHT22;57425;51.616;6.680;2023-05-20T05:55:24;15.60;73.40
70068;DHT22;57425;51.616;6.680;2023-05-20T05:57:50;15.40;72.20
70068;DHT22;57425;51.616;6.680;2023-05-20T06:00:16;15.60;70.50
70068;DHT22;57425;51.616;6.680;2023-05-20T06:02:42;15.60;69.70
70068;DHT22;57425;51.616;6.680;2023-05-20T06:05:08;15.50;69.30
70068;DHT22;57425;51.616;6.680;2023-05-20T06:07:34;15.30;69.20
70068;DHT22;57425;51.616;6.680;2023-05-20T06:09:59;15.30;61.00
70068;DHT22;57425;51.616;6.680;2023-05-20T06:12:25;15.30;61.30
70068;DHT22;57425;51.616;6.680;2023-05-20T06:14:52;15.30;61.20
70068;DHT22;57425;51.616;6.680;2023-05-20T06:17:17;15.40;61.20
70068;DHT22;57425;51.616;6.680;2023-05-20T06:19:43;15.40;61.20
70068;DHT22;57425;51.616;6.680;2023-05-20T06:22:08;15.30;61.30
70068;DHT22;57425;51.616;6.680;2023-05-20T06:24:34;15.30;61.40
70068;DHT22;57425;51.616;6.680;2023-05-20T06:27:00;15.30;61.90
70068;DHT22;57425;51.616;6.680;2023-05-20T06:29:26;15.30;61.60
70068;DHT22;57425;51.616;6.680;2023-05-20T06:31:51;15.40;61.90
70068;DHT22;57425;51.616;6.680;2023-05-20T06:34:18;15.40;61.80
70068;DHT22;57425;51.616;6.680;2023-05-20T06:36:43;15.40;62.00
70068;DHT22;57425;51.616;6.680;2023-05-20T06:39:09;15.40;61.90
70068;DHT22;57425;51.616;6.680;2023-05-20T06:41:39;15.50;62.00
70068;DHT22;57425;51.616;6.680;2023-05-20T06:44:05;15.50;62.00
70068;DHT22;57425;51.616;6.680;2023-05-20T06:46:33;15.50;62.00
70068;DHT22;57425;51.616;6.680;2023-05-20T06:48:58;15.50;62.20
70068;DHT22;57425;51.616;6.680;2023-05-20T06:51:25;15.50;62.10
70068;DHT22;57425;51.616;6.680;2023-05-20T06:53:51;15.50;62.30
70068;DHT22;57425;51.616;6.680;2023-05-20T06:56:17;15.60;62.20
70068;DHT22;57425;51.616;6.680;2023-05-20T06:58:42;15.60;62.10
70068;DHT22;57425;51.616;6.680;2023-05-20T07:01:08;15.60;62.10
70068;DHT22;57425;51.616;6.680;2023-05-20T07:03:34;15.60;62.00
70068;DHT22;57425;51.616;6.680;2023-05-20T07:06:00;15.60;62.00
70068;DHT22;57425;51.616;6.680;2023-05-20T07:08:25;15.70;62.10
70068;DHT22;57425;51.616;6.680;2023-05-20T07:10:51;15.70;62.10
70068;DHT22;57425;51.616;6.680;2023-05-20T07:13:19;15.70;62.10
70068;DHT22;57425;51.616;6.680;2023-05-20T07:15:48;15.70;62.10
70068;DHT22;57425;51.616;6.680;2023-05-20T07:18:14;15.70;62.00
70068;DHT22;57425;51.616;6.680;2023-05-20T07:20:40;15.80;61.90
70068;DHT22;57425;51.616;6.680;2023-05-20T07:23:06;15.80;61.80
70068;DHT22;57425;51.616;6.680;2023-05-20T07:25:32;15.80;61.80
70068;DHT22;57425;51.616;6.680;2023-05-20T07:27:57;15.80;61.90
70068;DHT22;57425;51.616;6.680;2023-05-20T07:30:25;15.90;61.80
70068;DHT22;57425;51.616;6.680;2023-05-20T07:32:51;15.90;61.60
70068;DHT22;57425;51.616;6.680;2023-05-20T07:35:16;15.90;61.50
70068;DHT22;57425;51.616;6.680;2023-05-20T07:37:42;15.90;61.40
70068;DHT22;57425;51.616;6.680;2023-05-20T07:40:08;16.00;61.60
70068;DHT22;57425;51.616;6.680;2023-05-20T07:42:34;16.00;61.50
70068;DHT22;57425;51.616;6.680;2023-05-20T07:45:00;16.00;61.90
70068;DHT22;57425;51.616;6.680;2023-05-20T07:47:25;16.10;61.00
70068;DHT22;57425;51.616;6.680;2023-05-20T07:49:51;16.10;60.90
70068;DHT22;57425;51.616;6.680;2023-05-20T07:52:17;16.10;60.70
70068;DHT22;57425;51.616;6.680;2023-05-20T07:54:42;16.10;60.70
70068;DHT22;57425;51.616;6.680;2023-05-20T07:57:08;16.10;60.70
70068;DHT22;57425;51.616;6.680;2023-05-20T07:59:33;16.20;60.80
70068;DHT22;57425;51.616;6.680;2023-05-20T08:01:59;16.20;60.70
70068;DHT22;57425;51.616;6.680;2023-05-20T08:04:25;16.20;60.70
70068;DHT22;57425;51.616;6.680;2023-05-20T08:06:52;16.20;60.70
70068;DHT22;57425;51.616;6.680;2023-05-20T08:09:18;16.30;60.70
70068;DHT22;57425;51.616;6.680;2023-05-20T08:11:44;16.30;60.40
70068;DHT22;57425;51.616;6.680;2023-05-20T08:14:09;16.30;60.40
70068;DHT22;57425;51.616;6.680;2023-05-20T08:16:35;16.30;60.50
70068;DHT22;57425;51.616;6.680;2023-05-20T08:19:02;16.40;60.70
70068;DHT22;57425;51.616;6.680;2023-05-20T08:21:27;16.40;60.70
70068;DHT22;57425;51.616;6.680;2023-05-20T08:23:53;16.40;60.70
70068;DHT22;57425;51.616;6.680;2023-05-20T08:26:19;16.40;60.70
70068;DHT22;57425;51.616;6.680;2023-05-20T08:28:46;16.40;60.70
70068;DHT22;57425;51.616;6.680;2023-05-20T08:31:13;16.40;60.70
70068;DHT22;57425;51.616;6.680;2023-05-20T08:33:38;16.40;60.70
70068;DHT22;57425;51.616;6.680;2023-05-20T08:36:05;16.50;60.80
70068;DHT22;57425;51.616;6.680;2023-05-20T08:38:32;16.50;61.00
70068;DHT22;57425;51.616;6.680;2023-05-20T08:40:58;16.50;61.00
70068;DHT22;57425;51.616;6.680;2023-05-20T08:43:25;16.40;61.00
70068;DHT22;57425;51.616;6.680;2023-05-20T08:45:51;16.50;61.30
70068;DHT22;57425;51.616;6.680;2023-05-20T08:48:18;16.50;61.20
70068;DHT22;57425;51.616;6.680;2023-05-20T08:50:50;16.50;61.30
70068;DHT22;57425;51.616;6.680;2023-05-20T08:53:16;16.50;61.20
70068;DHT22;57425;51.616;6.680;2023-05-20T08:55:45;16.50;61.80
70068;DHT22;57425;51.616;6.680;2023-05-20T08:58:11;16.50;61.30
70068;DHT22;57425;51.616;6.680;2023-05-20T09:00:39;16.50;61.30
70068;DHT22;57425;51.616;6.680;2023-05-20T09:03:06;16.60;61.40
70068;DHT22;57425;51.616;6.680;2023-05-20T09:05:33;16.60;61.50
70068;DHT22;57425;51.616;6.680;2023-05-20T09:08:09;16.50;61.50
70068;DHT22;57425;51.616;6.680;2023-05-20T09:10:37;16.60;62.20
70068;DHT22;57425;51.616;6.680;2023-05-20T09:13:03;16.60;61.60
70068;DHT22;57425;51.616;6.680;2023-05-20T09:15:30;16.60;61.80
70068;DHT22;57425;51.616;6.680;2023-05-20T09:17:59;16.70;61.80
70068;DHT22;57425;51.616;6.680;2023-05-20T09:20:25;16.70;61.80
70068;DHT22;57425;51.616;6.680;2023-05-20T09:22:51;16.70;61.80
70068;DHT22;57425;51.616;6.680;2023-05-20T09:25:21;16.70;61.90
70068;DHT22;57425;51.616;6.680;2023-05-20T09:27:48;16.70;61.90
70068;DHT22;57425;51.616;6.680;2023-05-20T09:30:18;16.70;61.90
70068;DHT22;57425;51.616;6.680;2023-05-20T09:32:43;16.70;61.90
70068;DHT22;57425;51.616;6.680;2023-05-20T09:35:12;16.80;61.90
70068;DHT22;57425;51.616;6.680;2023-05-20T09:37:41;16.80;61.90
70068;DHT22;57425;51.616;6.680;2023-05-20T09:40:07;16.80;62.10
70068;DHT22;57425;51.616;6.680;2023-05-20T09:42:43;16.80;62.20
70068;DHT22;57425;51.616;6.680;2023-05-20T09:45:11;16.90;62.40
70068;DHT22;57425;51.616;6.680;2023-05-20T09:47:38;16.90;62.10
70068;DHT22;57425;51.616;6.680;2023-05-20T09:50:08;16.90;61.90
70068;DHT22;57425;51.616;6.680;2023-05-20T09:52:37;16.90;62.20
70068;DHT22;57425;51.616;6.680;2023-05-20T09:55:08;17.00;62.30
70068;DHT22;57425;51.616;6.680;2023-05-20T09:57:36;17.00;62.20
70068;DHT22;57425;51.616;6.680;2023-05-20T10:00:04;17.00;62.20
70068;DHT22;57425;51.616;6.680;2023-05-20T10:02:34;17.00;62.00
70068;DHT22;57425;51.616;6.680;2023-05-20T10:05:03;17.00;61.90
70068;DHT22;57425;51.616;6.680;2023-05-20T10:08:04;17.00;61.80
70068;DHT22;57425;51.616;6.680;2023-05-20T10:10:53;17.10;61.80
70068;DHT22;57425;51.616;6.680;2023-05-20T10:16:59;17.10;61.60
70068;DHT22;57425;51.616;6.680;2023-05-20T10:19:32;17.10;61.60
70068;DHT22;57425;51.616;6.680;2023-05-20T10:22:03;17.10;61.80
70068;DHT22;57425;51.616;6.680;2023-05-20T10:24:39;17.10;61.80
70068;DHT22;57425;51.616;6.680;2023-05-20T10:27:13;17.20;62.00
70068;DHT22;57425;51.616;6.680;2023-05-20T10:29:54;17.20;62.00
70068;DHT22;57425;51.616;6.680;2023-05-20T10:32:27;17.20;62.00
70068;DHT22;57425;51.616;6.680;2023-05-20T10:35:02;17.30;61.20
70068;DHT22;57425;51.616;6.680;2023-05-20T10:37:31;17.30;61.30
70068;DHT22;57425;51.616;6.680;2023-05-20T10:40:24;17.30;61.30
70068;DHT22;57425;51.616;6.680;2023-05-20T10:42:49;17.30;61.80
70068;DHT22;57425;51.616;6.680;2023-05-20T10:45:28;17.30;61.60
70068;DHT22;57425;51.616;6.680;2023-05-20T10:47:55;17.30;61.20
70068;DHT22;57425;51.616;6.680;2023-05-20T10:50:32;17.30;61.10
70068;DHT22;57425;51.616;6.680;2023-05-20T10:53:05;17.30;61.20
70068;DHT22;57425;51.616;6.680;2023-05-20T10:55:38;17.30;61.40
70068;DHT22;57425;51.616;6.680;2023-05-20T10:58:04;17.40;62.20
70068;DHT22;57425;51.616;6.680;2023-05-20T11:00:34;17.40;61.50
70068;DHT22;57425;51.616;6.680;2023-05-20T11:03:00;17.40;61.80
70068;DHT22;57425;51.616;6.680;2023-05-20T11:05:26;17.40;61.60
70068;DHT22;57425;51.616;6.680;2023-05-20T11:08:05;17.40;61.30
70068;DHT22;57425;51.616;6.680;2023-05-20T11:10:33;17.50;61.40
70068;DHT22;57425;51.616;6.680;2023-05-20T11:13:00;17.50;61.50
70068;DHT22;57425;51.616;6.680;2023-05-20T11:15:26;17.50;61.20
70068;DHT22;57425;51.616;6.680;2023-05-20T11:18:00;17.50;61.30
70068;DHT22;57425;51.616;6.680;2023-05-20T11:20:26;17.50;61.30
70068;DHT22;57425;51.616;6.680;2023-05-20T11:22:53;17.50;61.40
70068;DHT22;57425;51.616;6.680;2023-05-20T11:25:19;17.60;61.40
70068;DHT22;57425;51.616;6.680;2023-05-20T11:27:46;17.60;61.30
70068;DHT22;57425;51.616;6.680;2023-05-20T11:30:15;17.60;61.50
70068;DHT22;57425;51.616;6.680;2023-05-20T11:33:00;17.60;62.00
70068;DHT22;57425;51.616;6.680;2023-05-20T11:35:26;17.60;61.50
70068;DHT22;57425;51.616;6.680;2023-05-20T11:38:06;17.60;61.60
70068;DHT22;57425;51.616;6.680;2023-05-20T11:40:34;17.70;61.60
70068;DHT22;57425;51.616;6.680;2023-05-20T11:43:02;17.70;61.60
70068;DHT22;57425;51.616;6.680;2023-05-20T11:45:52;17.70;61.30
70068;DHT22;57425;51.616;6.680;2023-05-20T11:48:18;17.80;61.10
70068;DHT22;57425;51.616;6.680;2023-05-20T11:50:46;17.80;61.40
70068;DHT22;57425;51.616;6.680;2023-05-20T11:53:17;17.80;61.60
70068;DHT22;57425;51.616;6.680;2023-05-20T11:55:58;17.80;61.80
70068;DHT22;57425;51.616;6.680;2023-05-20T11:58:29;17.90;61.30
70068;DHT22;57425;51.616;6.680;2023-05-20T12:00:55;17.90;61.60
70068;DHT22;57425;51.616;6.680;2023-05-20T12:03:21;17.90;61.30
70068;DHT22;57425;51.616;6.680;2023-05-20T12:05:47;17.90;61.10
70068;DHT22;57425;51.616;6.680;2023-05-20T12:08:13;17.90;61.30
70068;DHT22;57425;51.616;6.680;2023-05-20T12:10:39;17.90;61.30
70068;DHT22;57425;51.616;6.680;2023-05-20T12:13:05;18.00;61.50
70068;DHT22;57425;51.616;6.680;2023-05-20T12:15:36;18.00;61.60
70068;DHT22;57425;51.616;6.680;2023-05-20T12:18:02;18.00;61.80
70068;DHT22;57425;51.616;6.680;2023-05-20T12:20:28;18.10;61.40
70068;DHT22;57425;51.616;6.680;2023-05-20T12:22:54;18.10;61.50
70068;DHT22;57425;51.616;6.680;2023-05-20T12:25:20;18.10;61.40
70068;DHT22;57425;51.616;6.680;2023-05-20T12:27:47;18.10;60.80
70068;DHT22;57425;51.616;6.680;2023-05-20T12:30:18;18.20;61.50
70068;DHT22;57425;51.616;6.680;2023-05-20T12:32:44;18.20;61.00
70068;DHT22;57425;51.616;6.680;2023-05-20T12:35:11;18.20;61.20
70068;DHT22;57425;51.616;6.680;2023-05-20T12:37:38;18.20;61.30
70068;DHT22;57425;51.616;6.680;2023-05-20T12:40:07;18.30;61.20
70068;DHT22;57425;51.616;6.680;2023-05-20T12:42:35;18.30;61.20
70068;DHT22;57425;51.616;6.680;2023-05-20T12:45:00;18.30;61.10
70068;DHT22;57425;51.616;6.680;2023-05-20T12:47:27;18.30;61.00
70068;DHT22;57425;51.616;6.680;2023-05-20T12:49:53;18.40;61.10
70068;DHT22;57425;51.616;6.680;2023-05-20T12:52:19;18.40;61.20
70068;DHT22;57425;51.616;6.680;2023-05-20T12:54:44;18.40;61.20
70068;DHT22;57425;51.616;6.680;2023-05-20T12:57:10;18.40;61.10
70068;DHT22;57425;51.616;6.680;2023-05-20T12:59:36;18.40;61.20
70068;DHT22;57425;51.616;6.680;2023-05-20T13:02:02;18.50;61.10
70068;DHT22;57425;51.616;6.680;2023-05-20T13:04:28;18.40;60.70
70068;DHT22;57425;51.616;6.680;2023-05-20T13:06:54;18.50;60.70
70068;DHT22;57425;51.616;6.680;2023-05-20T13:09:19;18.70;60.50
70068;DHT22;57425;51.616;6.680;2023-05-20T13:11:45;18.50;60.70
70068;DHT22;57425;51.616;6.680;2023-05-20T13:14:11;18.60;60.80
70068;DHT22;57425;51.616;6.680;2023-05-20T13:16:37;18.60;60.80
70068;DHT22;57425;51.616;6.680;2023-05-20T13:19:03;18.60;60.90
70068;DHT22;57425;51.616;6.680;2023-05-20T13:21:28;18.60;61.10
70068;DHT22;57425;51.616;6.680;2023-05-20T13:23:54;18.60;61.00
70068;DHT22;57425;51.616;6.680;2023-05-20T13:26:19;18.60;60.80
70068;DHT22;57425;51.616;6.680;2023-05-20T13:28:46;18.70;60.80
70068;DHT22;57425;51.616;6.680;2023-05-20T13:31:11;18.70;60.60
70068;DHT22;57425;51.616;6.680;2023-05-20T13:33:38;18.70;60.60
70068;DHT22;57425;51.616;6.680;2023-05-20T13:36:04;18.70;60.60
70068;DHT22;57425;51.616;6.680;2023-05-20T13:38:30;18.70;61.00
70068;DHT22;57425;51.616;6.680;2023-05-20T13:40:55;18.70;60.90
70068;DHT22;57425;51.616;6.680;2023-05-20T13:43:24;18.90;61.00
70068;DHT22;57425;51.616;6.680;2023-05-20T13:45:50;18.80;60.80
70068;DHT22;57425;51.616;6.680;2023-05-20T13:48:17;18.80;60.90
70068;DHT22;57425;51.616;6.680;2023-05-20T13:50:43;18.80;60.60
70068;DHT22;57425;51.616;6.680;2023-05-20T13:53:08;18.80;60.40
70068;DHT22;57425;51.616;6.680;2023-05-20T13:55:38;18.90;60.50
70068;DHT22;57425;51.616;6.680;2023-05-20T13:58:04;18.90;60.20
70068;DHT22;57425;51.616;6.680;2023-05-20T14:00:36;18.90;60.00
70068;DHT22;57425;51.616;6.680;2023-05-20T14:03:02;18.90;60.30
70068;DHT22;57425;51.616;6.680;2023-05-20T14:05:30;18.90;60.60
70068;DHT22;57425;51.616;6.680;2023-05-20T14:07:55;18.90;60.50
70068;DHT22;57425;51.616;6.680;2023-05-20T14:10:21;18.90;60.00
70068;DHT22;57425;51.616;6.680;2023-05-20T14:12:47;18.90;60.20
70068;DHT22;57425;51.616;6.680;2023-05-20T14:15:13;18.90;60.40
70068;DHT22;57425;51.616;6.680;2023-05-20T14:17:39;18.90;60.50
70068;DHT22;57425;51.616;6.680;2023-05-20T14:20:05;19.00;60.50
70068;DHT22;57425;51.616;6.680;2023-05-20T14:22:30;19.00;60.10
70068;DHT22;57425;51.616;6.680;2023-05-20T14:24:57;19.00;60.30
70068;DHT22;57425;51.616;6.680;2023-05-20T14:27:22;19.00;60.10
70068;DHT22;57425;51.616;6.680;2023-05-20T14:29:48;19.00;60.30
70068;DHT22;57425;51.616;6.680;2023-05-20T14:32:13;19.10;60.60
70068;DHT22;57425;51.616;6.680;2023-05-20T14:34:39;19.10;60.20
70068;DHT22;57425;51.616;6.680;2023-05-20T14:37:05;19.10;59.90
70068;DHT22;57425;51.616;6.680;2023-05-20T14:39:35;19.10;60.10
70068;DHT22;57425;51.616;6.680;2023-05-20T14:42:01;19.10;59.90
70068;DHT22;57425;51.616;6.680;2023-05-20T14:44:27;19.10;59.80
70068;DHT22;57425;51.616;6.680;2023-05-20T14:46:53;19.20;60.20
70068;DHT22;57425;51.616;6.680;2023-05-20T14:49:19;19.20;60.70
70068;DHT22;57425;51.616;6.680;2023-05-20T14:51:44;19.20;60.40
70068;DHT22;57425;51.616;6.680;2023-05-20T14:54:10;19.20;60.20
70068;DHT22;57425;51.616;6.680;2023-05-20T14:59:02;19.30;79.50
70068;DHT22;57425;51.616;6.680;2023-05-20T15:01:28;19.30;60.00
70068;DHT22;57425;51.616;6.680;2023-05-20T15:03:53;19.30;60.20
70068;DHT22;57425;51.616;6.680;2023-05-20T15:06:19;19.30;60.00
70068;DHT22;57425;51.616;6.680;2023-05-20T15:08:45;19.20;60.20
70068;DHT22;57425;51.616;6.680;2023-05-20T15:11:11;19.20;60.20
70068;DHT22;57425;51.616;6.680;2023-05-20T15:13:36;19.20;59.80
70068;DHT22;57425;51.616;6.680;2023-05-20T15:16:02;19.20;60.00
70068;DHT22;57425;51.616;6.680;2023-05-20T15:18:28;19.20;70.20
70068;DHT22;57425;51.616;6.680;2023-05-20T15:20:53;19.20;60.00
70068;DHT22;57425;51.616;6.680;2023-05-20T15:23:19;19.20;60.00
70068;DHT22;57425;51.616;6.680;2023-05-20T15:25:45;19.20;58.70
70068;DHT22;57425;51.616;6.680;2023-05-20T15:28:10;19.20;59.20
70068;DHT22;57425;51.616;6.680;2023-05-20T15:30:36;19.20;59.70
70068;DHT22;57425;51.616;6.680;2023-05-20T15:33:01;19.20;59.90
70068;DHT22;57425;51.616;6.680;2023-05-20T15:35:27;19.20;59.90
70068;DHT22;57425;51.616;6.680;2023-05-20T15:37:53;19.20;60.20
70068;DHT22;57425;51.616;6.680;2023-05-20T15:40:19;19.30;60.20